Main page
METAR-TAF:

METAR-TAF

Airports :

Recife/Guararapes–Gilberto Freyre International Airport

Recife, Pernambuco, Brazil

latitude: 08-08S, longitude: 034-55W, elevation: 19 m

Current weather observation

The report was made 5 minutes ago, at 06:00 UTC
Wind 7 kt from the Southeast
Temperature 25°C
Humidity 79%
Pressure 1013 hPa
Visibility 10 km or more
Few clouds at a height of 2000 ft

METAR: SBRF 240600Z 13007KT 9999 FEW020 25/21 Q1013

Time: 03:05 (06:05 UTC)

Forecast

The report was made 4 hours and 5 minutes ago, at 02:00 UTC
Forecast valid from 24 at 06 UTC to 25 at 06 UTC
Wind 10 kt from the Southeast
Visibility 10 km or more
Scattered clouds at a height of 2200 ft

TAF: SBRF 240200Z 2406/2506 14010KT 9999 SCT022 TN25/2408Z TX29/2415Z RMK PCN

Weather observations and forecasts of more than 4000 airports (METAR and TAF reports).

The available stations are represented by yellow and red dots on the map.

Hover mouse over dot to see the name of the station.

Then click to see weather observations and forecasts.

To change the map : click on the green buttons with a black cross to zoom in, on the green button with a dash to zoom out, or on the green arrows for adjacent maps.


METAR-TAF: